sensor_id;sensor_type;location;lat;lon;timestamp;P1;durP1;ratioP1;P2;durP2;ratioP2
23155;SDS011;11746;50.876;4.246;2022-07-29T00:02:23;4.88;;;1.10;;
23155;SDS011;11746;50.876;4.246;2022-07-29T00:04:48;2.97;;;1.23;;
23155;SDS011;11746;50.876;4.246;2022-07-29T00:07:16;1.58;;;1.20;;
23155;SDS011;11746;50.876;4.246;2022-07-29T00:09:41;3.70;;;1.10;;
23155;SDS011;11746;50.876;4.246;2022-07-29T00:12:10;5.32;;;1.15;;
23155;SDS011;11746;50.876;4.246;2022-07-29T00:14:38;4.78;;;1.55;;
23155;SDS011;11746;50.876;4.246;2022-07-29T00:17:04;4.90;;;1.02;;
23155;SDS011;11746;50.876;4.246;2022-07-29T00:19:30;4.07;;;1.40;;
23155;SDS011;11746;50.876;4.246;2022-07-29T00:21:58;4.47;;;1.50;;
23155;SDS011;11746;50.876;4.246;2022-07-29T00:24:23;4.78;;;1.98;;
23155;SDS011;11746;50.876;4.246;2022-07-29T00:26:49;4.75;;;1.50;;
23155;SDS011;11746;50.876;4.246;2022-07-29T00:29:18;5.80;;;1.50;;
23155;SDS011;11746;50.876;4.246;2022-07-29T00:31:46;3.55;;;1.10;;
23155;SDS011;11746;50.876;4.246;2022-07-29T00:34:12;4.15;;;1.30;;
23155;SDS011;11746;50.876;4.246;2022-07-29T00:36:56;3.65;;;1.33;;
23155;SDS011;11746;50.876;4.246;2022-07-29T00:39:24;5.50;;;1.42;;
23155;SDS011;11746;50.876;4.246;2022-07-29T00:41:52;2.95;;;1.08;;
23155;SDS011;11746;50.876;4.246;2022-07-29T00:44:18;3.78;;;1.13;;
23155;SDS011;11746;50.876;4.246;2022-07-29T00:46:47;4.05;;;1.48;;
23155;SDS011;11746;50.876;4.246;2022-07-29T00:49:12;3.65;;;1.20;;
23155;SDS011;11746;50.876;4.246;2022-07-29T00:51:40;2.33;;;1.35;;
23155;SDS011;11746;50.876;4.246;2022-07-29T00:54:08;3.22;;;1.10;;
23155;SDS011;11746;50.876;4.246;2022-07-29T00:56:34;3.28;;;1.20;;
23155;SDS011;11746;50.876;4.246;2022-07-29T00:59:00;4.93;;;1.20;;
23155;SDS011;11746;50.876;4.246;2022-07-29T01:01:27;4.22;;;1.20;;
23155;SDS011;11746;50.876;4.246;2022-07-29T01:03:55;6.93;;;1.27;;
23155;SDS011;11746;50.876;4.246;2022-07-29T01:06:21;3.38;;;1.10;;
23155;SDS011;11746;50.876;4.246;2022-07-29T01:08:47;3.75;;;1.25;;
23155;SDS011;11746;50.876;4.246;2022-07-29T01:11:15;2.92;;;1.17;;
23155;SDS011;11746;50.876;4.246;2022-07-29T01:13:44;4.30;;;1.13;;
23155;SDS011;11746;50.876;4.246;2022-07-29T01:16:17;4.28;;;1.23;;
23155;SDS011;11746;50.876;4.246;2022-07-29T01:18:53;4.80;;;1.45;;
23155;SDS011;11746;50.876;4.246;2022-07-29T01:26:51;4.05;;;1.30;;
23155;SDS011;11746;50.876;4.246;2022-07-29T01:29:26;3.58;;;1.30;;
23155;SDS011;11746;50.876;4.246;2022-07-29T01:32:07;4.55;;;1.40;;
23155;SDS011;11746;50.876;4.246;2022-07-29T01:39:55;2.42;;;1.20;;
23155;SDS011;11746;50.876;4.246;2022-07-29T01:47:40;2.80;;;1.35;;
23155;SDS011;11746;50.876;4.246;2022-07-29T01:50:10;2.22;;;1.10;;
23155;SDS011;11746;50.876;4.246;2022-07-29T01:52:46;3.90;;;1.50;;
23155;SDS011;11746;50.876;4.246;2022-07-29T01:55:17;8.32;;;1.40;;
23155;SDS011;11746;50.876;4.246;2022-07-29T01:57:48;5.25;;;1.27;;
23155;SDS011;11746;50.876;4.246;2022-07-29T02:00:15;4.32;;;1.33;;
23155;SDS011;11746;50.876;4.246;2022-07-29T02:02:42;5.25;;;1.85;;
23155;SDS011;11746;50.876;4.246;2022-07-29T02:05:12;3.58;;;1.33;;
23155;SDS011;11746;50.876;4.246;2022-07-29T02:07:42;4.47;;;1.20;;
23155;SDS011;11746;50.876;4.246;2022-07-29T02:10:11;7.75;;;1.67;;
23155;SDS011;11746;50.876;4.246;2022-07-29T02:12:37;3.83;;;1.50;;
23155;SDS011;11746;50.876;4.246;2022-07-29T02:15:06;3.63;;;1.60;;
23155;SDS011;11746;50.876;4.246;2022-07-29T02:17:34;6.32;;;1.42;;
23155;SDS011;11746;50.876;4.246;2022-07-29T02:20:05;6.60;;;1.42;;
23155;SDS011;11746;50.876;4.246;2022-07-29T02:22:33;5.90;;;1.33;;
23155;SDS011;11746;50.876;4.246;2022-07-29T02:25:03;4.57;;;1.30;;
23155;SDS011;11746;50.876;4.246;2022-07-29T02:27:30;2.50;;;1.40;;
23155;SDS011;11746;50.876;4.246;2022-07-29T02:30:03;5.13;;;1.50;;
23155;SDS011;11746;50.876;4.246;2022-07-29T02:32:30;4.28;;;1.40;;
23155;SDS011;11746;50.876;4.246;2022-07-29T02:34:59;4.43;;;1.38;;
23155;SDS011;11746;50.876;4.246;2022-07-29T02:37:29;4.95;;;1.80;;
23155;SDS011;11746;50.876;4.246;2022-07-29T02:39:56;4.03;;;1.60;;
23155;SDS011;11746;50.876;4.246;2022-07-29T02:42:23;5.50;;;1.58;;
23155;SDS011;11746;50.876;4.246;2022-07-29T02:44:53;2.55;;;1.60;;
23155;SDS011;11746;50.876;4.246;2022-07-29T02:50:05;4.72;;;1.83;;
23155;SDS011;11746;50.876;4.246;2022-07-29T02:52:44;5.03;;;1.60;;
23155;SDS011;11746;50.876;4.246;2022-07-29T02:55:25;3.15;;;1.50;;
23155;SDS011;11746;50.876;4.246;2022-07-29T02:58:03;6.00;;;1.70;;
23155;SDS011;11746;50.876;4.246;2022-07-29T03:00:37;6.80;;;1.60;;
23155;SDS011;11746;50.876;4.246;2022-07-29T03:03:05;5.35;;;1.45;;
23155;SDS011;11746;50.876;4.246;2022-07-29T03:05:34;5.15;;;1.60;;
23155;SDS011;11746;50.876;4.246;2022-07-29T03:08:01;4.47;;;1.40;;
23155;SDS011;11746;50.876;4.246;2022-07-29T03:10:32;5.72;;;2.03;;
23155;SDS011;11746;50.876;4.246;2022-07-29T03:13:01;4.22;;;1.70;;
23155;SDS011;11746;50.876;4.246;2022-07-29T03:15:29;4.82;;;1.80;;
23155;SDS011;11746;50.876;4.246;2022-07-29T03:17:55;4.45;;;1.80;;
23155;SDS011;11746;50.876;4.246;2022-07-29T03:20:23;4.80;;;1.75;;
23155;SDS011;11746;50.876;4.246;2022-07-29T03:22:49;5.40;;;1.80;;
23155;SDS011;11746;50.876;4.246;2022-07-29T03:25:17;5.20;;;1.90;;
23155;SDS011;11746;50.876;4.246;2022-07-29T03:27:44;4.47;;;1.90;;
23155;SDS011;11746;50.876;4.246;2022-07-29T03:30:11;4.30;;;2.00;;
23155;SDS011;11746;50.876;4.246;2022-07-29T03:32:38;7.40;;;1.85;;
23155;SDS011;11746;50.876;4.246;2022-07-29T03:35:06;5.78;;;2.15;;
23155;SDS011;11746;50.876;4.246;2022-07-29T03:37:33;6.05;;;2.17;;
23155;SDS011;11746;50.876;4.246;2022-07-29T03:40:04;5.13;;;2.13;;
23155;SDS011;11746;50.876;4.246;2022-07-29T03:42:33;4.82;;;2.03;;
23155;SDS011;11746;50.876;4.246;2022-07-29T03:45:09;6.80;;;2.33;;
23155;SDS011;11746;50.876;4.246;2022-07-29T03:47:42;4.00;;;2.17;;
23155;SDS011;11746;50.876;4.246;2022-07-29T03:50:12;3.83;;;2.40;;
23155;SDS011;11746;50.876;4.246;2022-07-29T03:52:40;6.28;;;1.80;;
23155;SDS011;11746;50.876;4.246;2022-07-29T03:55:06;6.25;;;1.85;;
23155;SDS011;11746;50.876;4.246;2022-07-29T03:57:34;6.25;;;2.08;;
23155;SDS011;11746;50.876;4.246;2022-07-29T04:00:01;5.05;;;2.20;;
23155;SDS011;11746;50.876;4.246;2022-07-29T04:02:32;6.22;;;2.10;;
23155;SDS011;11746;50.876;4.246;2022-07-29T04:04:58;6.28;;;2.03;;
23155;SDS011;11746;50.876;4.246;2022-07-29T04:07:27;4.22;;;2.05;;
23155;SDS011;11746;50.876;4.246;2022-07-29T04:09:53;6.00;;;2.30;;
23155;SDS011;11746;50.876;4.246;2022-07-29T04:12:22;3.53;;;2.03;;
23155;SDS011;11746;50.876;4.246;2022-07-29T04:14:50;7.90;;;2.20;;
23155;SDS011;11746;50.876;4.246;2022-07-29T04:17:21;8.82;;;2.05;;
23155;SDS011;11746;50.876;4.246;2022-07-29T04:19:49;4.25;;;1.77;;
23155;SDS011;11746;50.876;4.246;2022-07-29T04:22:15;3.75;;;2.13;;
23155;SDS011;11746;50.876;4.246;2022-07-29T04:24:40;6.18;;;2.60;;
23155;SDS011;11746;50.876;4.246;2022-07-29T04:27:08;8.65;;;2.28;;
23155;SDS011;11746;50.876;4.246;2022-07-29T04:29:34;5.78;;;1.92;;
23155;SDS011;11746;50.876;4.246;2022-07-29T04:32:00;4.05;;;2.33;;
23155;SDS011;11746;50.876;4.246;2022-07-29T04:34:26;10.63;;;3.10;;
23155;SDS011;11746;50.876;4.246;2022-07-29T04:36:51;6.50;;;2.13;;
23155;SDS011;11746;50.876;4.246;2022-07-29T04:39:17;5.43;;;2.15;;
23155;SDS011;11746;50.876;4.246;2022-07-29T04:41:45;8.88;;;2.40;;
23155;SDS011;11746;50.876;4.246;2022-07-29T04:44:13;5.88;;;2.08;;
23155;SDS011;11746;50.876;4.246;2022-07-29T04:46:39;5.85;;;2.05;;
23155;SDS011;11746;50.876;4.246;2022-07-29T04:49:04;7.70;;;2.30;;
23155;SDS011;11746;50.876;4.246;2022-07-29T04:51:30;10.38;;;2.80;;
23155;SDS011;11746;50.876;4.246;2022-07-29T04:53:56;4.90;;;2.15;;
23155;SDS011;11746;50.876;4.246;2022-07-29T04:56:21;8.95;;;2.38;;
23155;SDS011;11746;50.876;4.246;2022-07-29T04:58:49;4.85;;;1.92;;
23155;SDS011;11746;50.876;4.246;2022-07-29T05:01:15;3.17;;;2.40;;
23155;SDS011;11746;50.876;4.246;2022-07-29T05:03:40;8.45;;;3.40;;
23155;SDS011;11746;50.876;4.246;2022-07-29T05:06:06;4.60;;;2.20;;
23155;SDS011;11746;50.876;4.246;2022-07-29T05:08:37;4.30;;;2.30;;
23155;SDS011;11746;50.876;4.246;2022-07-29T05:11:03;6.28;;;2.00;;
23155;SDS011;11746;50.876;4.246;2022-07-29T05:13:28;4.55;;;2.15;;
23155;SDS011;11746;50.876;4.246;2022-07-29T05:15:56;5.65;;;2.40;;
23155;SDS011;11746;50.876;4.246;2022-07-29T05:18:25;5.25;;;2.40;;
23155;SDS011;11746;50.876;4.246;2022-07-29T05:20:54;3.75;;;2.10;;
23155;SDS011;11746;50.876;4.246;2022-07-29T05:23:20;6.32;;;2.17;;
23155;SDS011;11746;50.876;4.246;2022-07-29T05:25:46;5.25;;;2.30;;
23155;SDS011;11746;50.876;4.246;2022-07-29T05:28:15;4.07;;;2.53;;
23155;SDS011;11746;50.876;4.246;2022-07-29T05:30:41;6.00;;;2.10;;
23155;SDS011;11746;50.876;4.246;2022-07-29T05:33:07;3.72;;;2.08;;
23155;SDS011;11746;50.876;4.246;2022-07-29T05:35:33;6.18;;;2.70;;
23155;SDS011;11746;50.876;4.246;2022-07-29T05:38:02;6.07;;;2.30;;
23155;SDS011;11746;50.876;4.246;2022-07-29T05:40:29;4.13;;;2.65;;
23155;SDS011;11746;50.876;4.246;2022-07-29T05:42:55;4.90;;;2.20;;
23155;SDS011;11746;50.876;4.246;2022-07-29T05:45:21;4.78;;;2.20;;
23155;SDS011;11746;50.876;4.246;2022-07-29T05:47:50;5.97;;;2.00;;
23155;SDS011;11746;50.876;4.246;2022-07-29T05:50:18;3.60;;;2.40;;
23155;SDS011;11746;50.876;4.246;2022-07-29T05:52:45;4.90;;;2.15;;
23155;SDS011;11746;50.876;4.246;2022-07-29T05:55:13;5.05;;;2.08;;
23155;SDS011;11746;50.876;4.246;2022-07-29T05:57:41;5.18;;;2.35;;
23155;SDS011;11746;50.876;4.246;2022-07-29T06:00:10;5.03;;;2.10;;
23155;SDS011;11746;50.876;4.246;2022-07-29T06:02:37;3.85;;;2.50;;
23155;SDS011;11746;50.876;4.246;2022-07-29T06:05:04;4.20;;;2.30;;
23155;SDS011;11746;50.876;4.246;2022-07-29T06:07:30;5.38;;;2.40;;
23155;SDS011;11746;50.876;4.246;2022-07-29T06:09:57;11.52;;;2.67;;
23155;SDS011;11746;50.876;4.246;2022-07-29T06:12:23;7.35;;;2.60;;
23155;SDS011;11746;50.876;4.246;2022-07-29T06:14:48;6.05;;;2.40;;
23155;SDS011;11746;50.876;4.246;2022-07-29T06:17:15;4.50;;;2.28;;
23155;SDS011;11746;50.876;4.246;2022-07-29T06:19:41;4.05;;;2.10;;
23155;SDS011;11746;50.876;4.246;2022-07-29T06:22:07;6.63;;;2.60;;
23155;SDS011;11746;50.876;4.246;2022-07-29T06:24:35;6.32;;;2.90;;
23155;SDS011;11746;50.876;4.246;2022-07-29T06:27:02;4.15;;;2.20;;
23155;SDS011;11746;50.876;4.246;2022-07-29T06:29:27;7.65;;;2.97;;
23155;SDS011;11746;50.876;4.246;2022-07-29T06:31:56;4.88;;;2.38;;
23155;SDS011;11746;50.876;4.246;2022-07-29T06:34:24;7.28;;;2.70;;
23155;SDS011;11746;50.876;4.246;2022-07-29T06:36:50;4.90;;;2.67;;
23155;SDS011;11746;50.876;4.246;2022-07-29T06:39:17;4.00;;;2.30;;
23155;SDS011;11746;50.876;4.246;2022-07-29T06:41:48;5.30;;;2.70;;
23155;SDS011;11746;50.876;4.246;2022-07-29T06:44:17;5.25;;;2.70;;
23155;SDS011;11746;50.876;4.246;2022-07-29T06:46:46;4.45;;;2.38;;
23155;SDS011;11746;50.876;4.246;2022-07-29T06:49:14;4.35;;;2.42;;
23155;SDS011;11746;50.876;4.246;2022-07-29T06:51:39;5.25;;;2.70;;
23155;SDS011;11746;50.876;4.246;2022-07-29T06:54:08;7.18;;;2.60;;
23155;SDS011;11746;50.876;4.246;2022-07-29T06:56:34;6.57;;;2.70;;
23155;SDS011;11746;50.876;4.246;2022-07-29T06:59:02;6.35;;;2.90;;
23155;SDS011;11746;50.876;4.246;2022-07-29T07:01:31;4.25;;;2.60;;
23155;SDS011;11746;50.876;4.246;2022-07-29T07:03:57;2.83;;;2.10;;
23155;SDS011;11746;50.876;4.246;2022-07-29T07:06:23;5.07;;;2.67;;
23155;SDS011;11746;50.876;4.246;2022-07-29T07:08:48;4.93;;;2.60;;
23155;SDS011;11746;50.876;4.246;2022-07-29T07:11:17;4.57;;;2.30;;
23155;SDS011;11746;50.876;4.246;2022-07-29T07:13:43;6.03;;;2.70;;
23155;SDS011;11746;50.876;4.246;2022-07-29T07:16:08;5.97;;;2.70;;
23155;SDS011;11746;50.876;4.246;2022-07-29T07:18:34;9.60;;;3.03;;
23155;SDS011;11746;50.876;4.246;2022-07-29T07:21:00;7.22;;;2.90;;
23155;SDS011;11746;50.876;4.246;2022-07-29T07:23:29;5.65;;;3.00;;
23155;SDS011;11746;50.876;4.246;2022-07-29T07:25:55;9.73;;;3.25;;
23155;SDS011;11746;50.876;4.246;2022-07-29T07:28:23;6.80;;;2.80;;
23155;SDS011;11746;50.876;4.246;2022-07-29T07:30:51;5.93;;;2.90;;
23155;SDS011;11746;50.876;4.246;2022-07-29T07:33:20;6.88;;;3.00;;
23155;SDS011;11746;50.876;4.246;2022-07-29T07:35:46;9.30;;;3.30;;
23155;SDS011;11746;50.876;4.246;2022-07-29T07:38:14;95.20;;;7.95;;
23155;SDS011;11746;50.876;4.246;2022-07-29T07:40:42;9.60;;;2.83;;
23155;SDS011;11746;50.876;4.246;2022-07-29T07:43:13;7.53;;;2.78;;
23155;SDS011;11746;50.876;4.246;2022-07-29T07:45:39;13.68;;;4.25;;
23155;SDS011;11746;50.876;4.246;2022-07-29T07:48:05;6.00;;;3.17;;
23155;SDS011;11746;50.876;4.246;2022-07-29T07:50:35;6.38;;;3.50;;
23155;SDS011;11746;50.876;4.246;2022-07-29T07:53:01;7.70;;;3.55;;
23155;SDS011;11746;50.876;4.246;2022-07-29T07:55:27;6.10;;;2.97;;
23155;SDS011;11746;50.876;4.246;2022-07-29T07:57:53;6.82;;;2.83;;
23155;SDS011;11746;50.876;4.246;2022-07-29T08:00:20;6.50;;;2.95;;
23155;SDS011;11746;50.876;4.246;2022-07-29T08:02:46;4.70;;;2.83;;
23155;SDS011;11746;50.876;4.246;2022-07-29T08:05:12;6.78;;;3.33;;
23155;SDS011;11746;50.876;4.246;2022-07-29T08:07:42;5.93;;;3.17;;
23155;SDS011;11746;50.876;4.246;2022-07-29T08:10:11;6.93;;;3.22;;
23155;SDS011;11746;50.876;4.246;2022-07-29T08:12:37;7.72;;;3.20;;
23155;SDS011;11746;50.876;4.246;2022-07-29T08:15:04;6.00;;;2.60;;
23155;SDS011;11746;50.876;4.246;2022-07-29T08:17:32;6.75;;;3.10;;
23155;SDS011;11746;50.876;4.246;2022-07-29T08:19:58;7.57;;;3.20;;
23155;SDS011;11746;50.876;4.246;2022-07-29T08:22:24;7.97;;;2.58;;
23155;SDS011;11746;50.876;4.246;2022-07-29T08:24:50;4.80;;;2.40;;
23155;SDS011;11746;50.876;4.246;2022-07-29T08:27:20;5.97;;;2.83;;
23155;SDS011;11746;50.876;4.246;2022-07-29T08:29:49;6.45;;;2.55;;
23155;SDS011;11746;50.876;4.246;2022-07-29T08:32:17;3.38;;;2.70;;
23155;SDS011;11746;50.876;4.246;2022-07-29T08:34:45;5.53;;;3.05;;
23155;SDS011;11746;50.876;4.246;2022-07-29T08:37:11;4.03;;;2.25;;
23155;SDS011;11746;50.876;4.246;2022-07-29T08:39:42;6.65;;;2.80;;
23155;SDS011;11746;50.876;4.246;2022-07-29T08:42:07;10.70;;;2.40;;
23155;SDS011;11746;50.876;4.246;2022-07-29T08:44:36;5.07;;;2.83;;
23155;SDS011;11746;50.876;4.246;2022-07-29T08:47:02;7.03;;;2.45;;
23155;SDS011;11746;50.876;4.246;2022-07-29T08:49:28;5.03;;;2.53;;
23155;SDS011;11746;50.876;4.246;2022-07-29T08:51:54;6.20;;;2.30;;
23155;SDS011;11746;50.876;4.246;2022-07-29T08:54:22;2.35;;;1.98;;
23155;SDS011;11746;50.876;4.246;2022-07-29T08:56:49;4.07;;;2.10;;
23155;SDS011;11746;50.876;4.246;2022-07-29T08:59:19;5.45;;;2.28;;
23155;SDS011;11746;50.876;4.246;2022-07-29T09:01:46;6.80;;;2.20;;
23155;SDS011;11746;50.876;4.246;2022-07-29T09:04:12;4.97;;;2.10;;
23155;SDS011;11746;50.876;4.246;2022-07-29T09:06:44;2.00;;;1.70;;
23155;SDS011;11746;50.876;4.246;2022-07-29T09:09:12;8.40;;;2.15;;
23155;SDS011;11746;50.876;4.246;2022-07-29T09:11:42;3.10;;;1.83;;
23155;SDS011;11746;50.876;4.246;2022-07-29T09:14:11;4.05;;;1.85;;
23155;SDS011;11746;50.876;4.246;2022-07-29T09:16:45;5.22;;;1.90;;
23155;SDS011;11746;50.876;4.246;2022-07-29T09:21:49;5.78;;;2.30;;
23155;SDS011;11746;50.876;4.246;2022-07-29T09:24:27;6.57;;;2.60;;
23155;SDS011;11746;50.876;4.246;2022-07-29T09:29:59;4.85;;;1.95;;
23155;SDS011;11746;50.876;4.246;2022-07-29T09:32:53;7.78;;;2.38;;
23155;SDS011;11746;50.876;4.246;2022-07-29T09:35:21;3.95;;;2.10;;
23155;SDS011;11746;50.876;4.246;2022-07-29T09:37:48;5.18;;;2.30;;
23155;SDS011;11746;50.876;4.246;2022-07-29T09:40:16;10.45;;;2.70;;
23155;SDS011;11746;50.876;4.246;2022-07-29T09:42:46;5.55;;;2.70;;
23155;SDS011;11746;50.876;4.246;2022-07-29T09:45:13;5.95;;;2.88;;
23155;SDS011;11746;50.876;4.246;2022-07-29T09:47:54;5.60;;;3.30;;
23155;SDS011;11746;50.876;4.246;2022-07-29T09:50:22;6.05;;;2.63;;
23155;SDS011;11746;50.876;4.246;2022-07-29T09:53:02;5.68;;;2.75;;
23155;SDS011;11746;50.876;4.246;2022-07-29T09:55:32;4.93;;;2.85;;
23155;SDS011;11746;50.876;4.246;2022-07-29T10:00:43;5.28;;;2.53;;
23155;SDS011;11746;50.876;4.246;2022-07-29T10:03:10;6.47;;;2.50;;
23155;SDS011;11746;50.876;4.246;2022-07-29T10:05:39;5.18;;;2.75;;
23155;SDS011;11746;50.876;4.246;2022-07-29T10:08:06;8.23;;;2.65;;
23155;SDS011;11746;50.876;4.246;2022-07-29T10:10:34;7.07;;;2.90;;
23155;SDS011;11746;50.876;4.246;2022-07-29T10:13:04;8.60;;;2.83;;
23155;SDS011;11746;50.876;4.246;2022-07-29T10:15:36;6.72;;;2.97;;
23155;SDS011;11746;50.876;4.246;2022-07-29T10:18:05;5.50;;;2.55;;
23155;SDS011;11746;50.876;4.246;2022-07-29T10:20:33;4.35;;;2.65;;
23155;SDS011;11746;50.876;4.246;2022-07-29T10:23:04;8.27;;;3.63;;
23155;SDS011;11746;50.876;4.246;2022-07-29T10:25:30;7.00;;;3.03;;
23155;SDS011;11746;50.876;4.246;2022-07-29T10:27:58;7.55;;;3.13;;
23155;SDS011;11746;50.876;4.246;2022-07-29T10:30:25;7.82;;;3.97;;
23155;SDS011;11746;50.876;4.246;2022-07-29T10:33:00;9.30;;;4.38;;
23155;SDS011;11746;50.876;4.246;2022-07-29T10:41:13;6.65;;;3.30;;
23155;SDS011;11746;50.876;4.246;2022-07-29T10:44:02;6.53;;;3.45;;
23155;SDS011;11746;50.876;4.246;2022-07-29T10:46:36;6.95;;;3.70;;
23155;SDS011;11746;50.876;4.246;2022-07-29T10:51:54;9.15;;;2.90;;
23155;SDS011;11746;50.876;4.246;2022-07-29T11:10:43;6.70;;;2.75;;
23155;SDS011;11746;50.876;4.246;2022-07-29T11:13:11;8.50;;;3.20;;
23155;SDS011;11746;50.876;4.246;2022-07-29T11:18:33;6.45;;;3.00;;
23155;SDS011;11746;50.876;4.246;2022-07-29T11:21:01;7.57;;;3.05;;
23155;SDS011;11746;50.876;4.246;2022-07-29T11:23:33;9.00;;;2.83;;
23155;SDS011;11746;50.876;4.246;2022-07-29T11:31:39;4.72;;;2.47;;
23155;SDS011;11746;50.876;4.246;2022-07-29T11:34:27;7.32;;;2.30;;
23155;SDS011;11746;50.876;4.246;2022-07-29T11:39:34;7.53;;;2.60;;
23155;SDS011;11746;50.876;4.246;2022-07-29T11:47:21;4.05;;;2.38;;
23155;SDS011;11746;50.876;4.246;2022-07-29T11:49:50;5.20;;;2.40;;
23155;SDS011;11746;50.876;4.246;2022-07-29T11:52:18;11.93;;;2.85;;
23155;SDS011;11746;50.876;4.246;2022-07-29T11:54:46;4.25;;;1.40;;
23155;SDS011;11746;50.876;4.246;2022-07-29T11:57:17;4.43;;;1.67;;
23155;SDS011;11746;50.876;4.246;2022-07-29T11:59:46;3.70;;;2.10;;
23155;SDS011;11746;50.876;4.246;2022-07-29T12:02:14;3.92;;;1.60;;
23155;SDS011;11746;50.876;4.246;2022-07-29T12:04:56;4.43;;;1.77;;
23155;SDS011;11746;50.876;4.246;2022-07-29T12:07:27;4.60;;;1.85;;
23155;SDS011;11746;50.876;4.246;2022-07-29T12:09:54;4.57;;;1.88;;
23155;SDS011;11746;50.876;4.246;2022-07-29T12:12:20;3.13;;;1.52;;
23155;SDS011;11746;50.876;4.246;2022-07-29T12:14:47;4.82;;;1.80;;
23155;SDS011;11746;50.876;4.246;2022-07-29T12:19:55;5.22;;;2.15;;
23155;SDS011;11746;50.876;4.246;2022-07-29T12:22:25;4.50;;;2.13;;
23155;SDS011;11746;50.876;4.246;2022-07-29T12:25:12;11.70;;;2.15;;
23155;SDS011;11746;50.876;4.246;2022-07-29T12:27:43;4.63;;;1.90;;
23155;SDS011;11746;50.876;4.246;2022-07-29T12:30:10;7.20;;;1.90;;
23155;SDS011;11746;50.876;4.246;2022-07-29T12:35:15;4.20;;;1.95;;
23155;SDS011;11746;50.876;4.246;2022-07-29T12:37:44;4.22;;;1.63;;
23155;SDS011;11746;50.876;4.246;2022-07-29T12:40:13;5.70;;;1.98;;
23155;SDS011;11746;50.876;4.246;2022-07-29T12:45:32;4.88;;;1.70;;
23155;SDS011;11746;50.876;4.246;2022-07-29T12:47:58;5.53;;;1.85;;
23155;SDS011;11746;50.876;4.246;2022-07-29T12:50:26;4.35;;;1.60;;
23155;SDS011;11746;50.876;4.246;2022-07-29T12:52:52;5.10;;;1.65;;
23155;SDS011;11746;50.876;4.246;2022-07-29T12:55:42;3.60;;;1.88;;
23155;SDS011;11746;50.876;4.246;2022-07-29T12:58:08;7.10;;;1.38;;
23155;SDS011;11746;50.876;4.246;2022-07-29T13:00:34;4.53;;;2.00;;
23155;SDS011;11746;50.876;4.246;2022-07-29T13:03:00;3.90;;;1.83;;
23155;SDS011;11746;50.876;4.246;2022-07-29T13:05:42;4.97;;;1.70;;
23155;SDS011;11746;50.876;4.246;2022-07-29T13:08:15;6.15;;;2.72;;
23155;SDS011;11746;50.876;4.246;2022-07-29T13:10:45;6.32;;;1.42;;
23155;SDS011;11746;50.876;4.246;2022-07-29T13:13:14;5.35;;;1.88;;
23155;SDS011;11746;50.876;4.246;2022-07-29T13:15:42;6.88;;;1.60;;
23155;SDS011;11746;50.876;4.246;2022-07-29T13:21:13;5.57;;;2.35;;
23155;SDS011;11746;50.876;4.246;2022-07-29T13:23:41;4.75;;;1.80;;
23155;SDS011;11746;50.876;4.246;2022-07-29T13:26:07;3.97;;;1.90;;
23155;SDS011;11746;50.876;4.246;2022-07-29T13:28:37;3.95;;;1.95;;
23155;SDS011;11746;50.876;4.246;2022-07-29T13:31:03;6.40;;;1.85;;
23155;SDS011;11746;50.876;4.246;2022-07-29T13:33:33;7.88;;;1.88;;
23155;SDS011;11746;50.876;4.246;2022-07-29T13:35:58;3.88;;;1.95;;
23155;SDS011;11746;50.876;4.246;2022-07-29T13:38:27;6.30;;;1.75;;
23155;SDS011;11746;50.876;4.246;2022-07-29T13:40:53;5.13;;;1.52;;
23155;SDS011;11746;50.876;4.246;2022-07-29T13:43:18;5.28;;;1.65;;
23155;SDS011;11746;50.876;4.246;2022-07-29T13:45:44;5.85;;;1.50;;
23155;SDS011;11746;50.876;4.246;2022-07-29T13:48:12;6.40;;;1.85;;
23155;SDS011;11746;50.876;4.246;2022-07-29T13:50:38;10.07;;;1.52;;
23155;SDS011;11746;50.876;4.246;2022-07-29T13:53:06;7.38;;;1.73;;
23155;SDS011;11746;50.876;4.246;2022-07-29T13:55:35;4.88;;;1.67;;
23155;SDS011;11746;50.876;4.246;2022-07-29T13:58:01;6.78;;;1.73;;
23155;SDS011;11746;50.876;4.246;2022-07-29T14:00:26;3.28;;;1.38;;
23155;SDS011;11746;50.876;4.246;2022-07-29T14:02:52;3.90;;;1.80;;
23155;SDS011;11746;50.876;4.246;2022-07-29T14:05:20;5.60;;;1.40;;
23155;SDS011;11746;50.876;4.246;2022-07-29T14:07:46;3.55;;;1.50;;
23155;SDS011;11746;50.876;4.246;2022-07-29T14:10:12;2.92;;;1.40;;
23155;SDS011;11746;50.876;4.246;2022-07-29T14:12:40;5.88;;;1.60;;
23155;SDS011;11746;50.876;4.246;2022-07-29T14:15:07;6.40;;;1.80;;
23155;SDS011;11746;50.876;4.246;2022-07-29T14:17:36;5.88;;;1.90;;
23155;SDS011;11746;50.876;4.246;2022-07-29T14:20:01;2.67;;;1.40;;
23155;SDS011;11746;50.876;4.246;2022-07-29T14:22:30;5.20;;;1.75;;
23155;SDS011;11746;50.876;4.246;2022-07-29T14:24:58;3.35;;;1.40;;
23155;SDS011;11746;50.876;4.246;2022-07-29T14:27:24;5.03;;;1.45;;
23155;SDS011;11746;50.876;4.246;2022-07-29T14:29:50;9.48;;;2.30;;
23155;SDS011;11746;50.876;4.246;2022-07-29T14:32:18;3.83;;;1.50;;
23155;SDS011;11746;50.876;4.246;2022-07-29T14:34:46;4.07;;;1.55;;
23155;SDS011;11746;50.876;4.246;2022-07-29T14:37:12;3.05;;;1.65;;
23155;SDS011;11746;50.876;4.246;2022-07-29T14:39:37;3.92;;;1.38;;
23155;SDS011;11746;50.876;4.246;2022-07-29T14:42:06;5.35;;;1.52;;
23155;SDS011;11746;50.876;4.246;2022-07-29T14:44:35;5.22;;;1.83;;
23155;SDS011;11746;50.876;4.246;2022-07-29T14:47:01;3.90;;;1.67;;
23155;SDS011;11746;50.876;4.246;2022-07-29T14:49:29;5.05;;;1.67;;
23155;SDS011;11746;50.876;4.246;2022-07-29T14:51:55;4.78;;;1.80;;
23155;SDS011;11746;50.876;4.246;2022-07-29T14:54:20;4.20;;;1.88;;
23155;SDS011;11746;50.876;4.246;2022-07-29T14:56:48;5.07;;;1.88;;
23155;SDS011;11746;50.876;4.246;2022-07-29T14:59:20;4.60;;;2.40;;
23155;SDS011;11746;50.876;4.246;2022-07-29T15:01:48;6.63;;;2.45;;
23155;SDS011;11746;50.876;4.246;2022-07-29T15:04:14;4.25;;;1.80;;
23155;SDS011;11746;50.876;4.246;2022-07-29T15:06:41;2.97;;;2.33;;
23155;SDS011;11746;50.876;4.246;2022-07-29T15:09:07;5.85;;;2.67;;
23155;SDS011;11746;50.876;4.246;2022-07-29T15:11:36;4.93;;;2.30;;
23155;SDS011;11746;50.876;4.246;2022-07-29T15:14:02;5.60;;;3.35;;
23155;SDS011;11746;50.876;4.246;2022-07-29T15:16:28;6.00;;;3.08;;
23155;SDS011;11746;50.876;4.246;2022-07-29T15:18:56;5.07;;;2.55;;
23155;SDS011;11746;50.876;4.246;2022-07-29T15:21:22;5.60;;;2.78;;
23155;SDS011;11746;50.876;4.246;2022-07-29T15:23:49;5.82;;;3.22;;
23155;SDS011;11746;50.876;4.246;2022-07-29T15:26:17;5.18;;;2.72;;
23155;SDS011;11746;50.876;4.246;2022-07-29T15:28:45;4.82;;;2.50;;
23155;SDS011;11746;50.876;4.246;2022-07-29T15:31:14;4.20;;;2.20;;
23155;SDS011;11746;50.876;4.246;2022-07-29T15:33:40;4.85;;;2.05;;
23155;SDS011;11746;50.876;4.246;2022-07-29T15:36:06;4.57;;;2.33;;
23155;SDS011;11746;50.876;4.246;2022-07-29T15:38:32;3.22;;;2.65;;
23155;SDS011;11746;50.876;4.246;2022-07-29T15:40:58;7.43;;;2.80;;
23155;SDS011;11746;50.876;4.246;2022-07-29T15:43:24;4.57;;;1.98;;
23155;SDS011;11746;50.876;4.246;2022-07-29T15:45:52;4.15;;;2.20;;
23155;SDS011;11746;50.876;4.246;2022-07-29T15:48:37;4.55;;;2.30;;
23155;SDS011;11746;50.876;4.246;2022-07-29T15:51:05;6.47;;;2.20;;
23155;SDS011;11746;50.876;4.246;2022-07-29T15:53:31;5.13;;;2.90;;
23155;SDS011;11746;50.876;4.246;2022-07-29T15:55:59;5.28;;;2.95;;
23155;SDS011;11746;50.876;4.246;2022-07-29T15:58:28;4.10;;;2.30;;
23155;SDS011;11746;50.876;4.246;2022-07-29T16:00:54;5.95;;;2.58;;
23155;SDS011;11746;50.876;4.246;2022-07-29T16:03:19;3.03;;;1.83;;
23155;SDS011;11746;50.876;4.246;2022-07-29T16:05:46;43.28;;;5.65;;
23155;SDS011;11746;50.876;4.246;2022-07-29T16:08:12;8.60;;;2.75;;
23155;SDS011;11746;50.876;4.246;2022-07-29T16:10:38;6.45;;;2.67;;
23155;SDS011;11746;50.876;4.246;2022-07-29T16:13:06;7.25;;;3.13;;
23155;SDS011;11746;50.876;4.246;2022-07-29T16:15:32;4.32;;;2.58;;